sensor_id;sensor_type;location;lat;lon;timestamp;pressure;altitude;pressure_sealevel;temperature
49154;BMP280;49455;52.252;9.124;2024-03-23T06:48:45;98635.28;;;5.91
49154;BMP280;49455;52.252;9.124;2024-03-23T07:02:59;98625.34;;;5.93
49154;BMP280;49455;52.252;9.124;2024-03-23T07:08:00;98633.03;;;6.03
49154;BMP280;49455;52.252;9.124;2024-03-23T07:13:00;98636.28;;;6.11
49154;BMP280;49455;52.252;9.124;2024-03-23T07:18:01;98640.34;;;6.12
49154;BMP280;49455;52.252;9.124;2024-03-23T07:23:01;98641.78;;;6.20
49154;BMP280;49455;52.252;9.124;2024-03-23T07:28:01;98644.34;;;6.16
49154;BMP280;49455;52.252;9.124;2024-03-23T07:33:02;98655.72;;;6.22
49154;BMP280;49455;52.252;9.124;2024-03-23T07:38:03;98650.97;;;6.21
49154;BMP280;49455;52.252;9.124;2024-03-23T07:43:03;98649.81;;;6.25
49154;BMP280;49455;52.252;9.124;2024-03-23T07:48:04;98656.41;;;6.30
49154;BMP280;49455;52.252;9.124;2024-03-23T07:53:05;98644.66;;;6.25
49154;BMP280;49455;52.252;9.124;2024-03-23T07:58:05;98650.59;;;6.22
49154;BMP280;49455;52.252;9.124;2024-03-23T08:03:06;98648.34;;;6.28
49154;BMP280;49455;52.252;9.124;2024-03-23T08:08:06;98648.34;;;6.31
49154;BMP280;49455;52.252;9.124;2024-03-23T08:13:06;98653.41;;;6.46
49154;BMP280;49455;52.252;9.124;2024-03-23T08:18:07;98648.56;;;6.58
49154;BMP280;49455;52.252;9.124;2024-03-23T08:23:08;98656.03;;;6.93
49154;BMP280;49455;52.252;9.124;2024-03-23T08:28:08;98644.22;;;7.03
49154;BMP280;49455;52.252;9.124;2024-03-23T08:33:09;98642.28;;;7.17
49154;BMP280;49455;52.252;9.124;2024-03-23T08:38:12;98650.88;;;7.44
49154;BMP280;49455;52.252;9.124;2024-03-23T08:43:13;98648.94;;;7.55
49154;BMP280;49455;52.252;9.124;2024-03-23T08:48:13;98656.59;;;7.62
49154;BMP280;49455;52.252;9.124;2024-03-23T08:53:14;98653.03;;;7.49
49154;BMP280;49455;52.252;9.124;2024-03-23T08:58:14;98654.91;;;7.82
49154;BMP280;49455;52.252;9.124;2024-03-23T09:03:15;98655.19;;;8.22
49154;BMP280;49455;52.252;9.124;2024-03-23T09:08:15;98642.69;;;8.47
49154;BMP280;49455;52.252;9.124;2024-03-23T09:13:16;98654.28;;;8.05
49154;BMP280;49455;52.252;9.124;2024-03-23T09:18:16;98665.75;;;8.00
49154;BMP280;49455;52.252;9.124;2024-03-23T09:23:17;98644.19;;;7.87
49154;BMP280;49455;52.252;9.124;2024-03-23T09:28:17;98652.84;;;8.00
49154;BMP280;49455;52.252;9.124;2024-03-23T09:33:18;98647.19;;;8.13
49154;BMP280;49455;52.252;9.124;2024-03-23T09:38:18;98641.19;;;8.23
49154;BMP280;49455;52.252;9.124;2024-03-23T09:43:19;98637.44;;;8.54
49154;BMP280;49455;52.252;9.124;2024-03-23T09:48:20;98633.25;;;8.37
49154;BMP280;49455;52.252;9.124;2024-03-23T09:53:20;98631.81;;;8.05
49154;BMP280;49455;52.252;9.124;2024-03-23T09:58:23;98636.91;;;7.42
49154;BMP280;49455;52.252;9.124;2024-03-23T10:03:24;98624.69;;;7.49
49154;BMP280;49455;52.252;9.124;2024-03-23T10:08:24;98625.16;;;7.78
49154;BMP280;49455;52.252;9.124;2024-03-23T10:13:28;98625.16;;;8.35
49154;BMP280;49455;52.252;9.124;2024-03-23T10:18:28;98609.88;;;8.74
49154;BMP280;49455;52.252;9.124;2024-03-23T10:23:28;98608.22;;;8.83
49154;BMP280;49455;52.252;9.124;2024-03-23T10:28:29;98603.47;;;9.05
49154;BMP280;49455;52.252;9.124;2024-03-23T10:33:29;98609.41;;;8.33
49154;BMP280;49455;52.252;9.124;2024-03-23T10:38:30;98611.31;;;7.98
49154;BMP280;49455;52.252;9.124;2024-03-23T10:43:32;98615.66;;;8.32
49154;BMP280;49455;52.252;9.124;2024-03-23T10:48:33;98613.09;;;8.55
49154;BMP280;49455;52.252;9.124;2024-03-23T10:53:34;98612.50;;;8.44
49154;BMP280;49455;52.252;9.124;2024-03-23T10:58:40;98598.66;;;8.34
49154;BMP280;49455;52.252;9.124;2024-03-23T11:03:45;98608.06;;;8.94
49154;BMP280;49455;52.252;9.124;2024-03-23T11:08:46;98600.41;;;8.90
49154;BMP280;49455;52.252;9.124;2024-03-23T11:13:51;98593.81;;;8.40
49154;BMP280;49455;52.252;9.124;2024-03-23T11:18:51;98597.25;;;8.30
49154;BMP280;49455;52.252;9.124;2024-03-23T11:23:52;98613.00;;;8.08
49154;BMP280;49455;52.252;9.124;2024-03-23T11:29:08;98619.56;;;7.49
49154;BMP280;49455;52.252;9.124;2024-03-23T11:34:09;98631.78;;;7.38
49154;BMP280;49455;52.252;9.124;2024-03-23T11:39:20;98642.72;;;7.12
49154;BMP280;49455;52.252;9.124;2024-03-23T11:44:22;98634.50;;;7.24
49154;BMP280;49455;52.252;9.124;2024-03-23T11:49:24;98635.31;;;8.49
49154;BMP280;49455;52.252;9.124;2024-03-23T11:54:26;98640.41;;;7.95
49154;BMP280;49455;52.252;9.124;2024-03-23T11:59:36;98657.16;;;7.36
49154;BMP280;49455;52.252;9.124;2024-03-23T12:04:38;98674.91;;;5.76
49154;BMP280;49455;52.252;9.124;2024-03-23T12:09:39;98662.47;;;5.15
49154;BMP280;49455;52.252;9.124;2024-03-23T12:14:39;98666.53;;;5.37
49154;BMP280;49455;52.252;9.124;2024-03-23T12:19:41;98656.97;;;5.72
49154;BMP280;49455;52.252;9.124;2024-03-23T12:24:41;98647.00;;;5.95
49154;BMP280;49455;52.252;9.124;2024-03-23T12:29:42;98653.56;;;6.79
49154;BMP280;49455;52.252;9.124;2024-03-23T12:34:43;98655.38;;;7.70
49154;BMP280;49455;52.252;9.124;2024-03-23T12:39:43;98639.16;;;7.77
49154;BMP280;49455;52.252;9.124;2024-03-23T12:44:44;98625.53;;;7.76
49154;BMP280;49455;52.252;9.124;2024-03-23T12:49:44;98607.00;;;8.15
49154;BMP280;49455;52.252;9.124;2024-03-23T12:54:47;98601.81;;;8.95
49154;BMP280;49455;52.252;9.124;2024-03-23T12:59:48;98588.78;;;8.33
49154;BMP280;49455;52.252;9.124;2024-03-23T13:04:53;98589.00;;;8.42
49154;BMP280;49455;52.252;9.124;2024-03-23T13:09:53;98581.41;;;8.58
49154;BMP280;49455;52.252;9.124;2024-03-23T13:14:54;98584.03;;;8.01
49154;BMP280;49455;52.252;9.124;2024-03-23T13:19:54;98596.44;;;7.79
49154;BMP280;49455;52.252;9.124;2024-03-23T13:24:55;98592.81;;;7.73
49154;BMP280;49455;52.252;9.124;2024-03-23T13:29:55;98599.94;;;8.49
49154;BMP280;49455;52.252;9.124;2024-03-23T13:34:56;98604.84;;;8.90
49154;BMP280;49455;52.252;9.124;2024-03-23T13:39:56;98600.91;;;8.82
49154;BMP280;49455;52.252;9.124;2024-03-23T13:44:57;98616.72;;;8.07
49154;BMP280;49455;52.252;9.124;2024-03-23T13:49:57;98691.06;;;6.80
49154;BMP280;49455;52.252;9.124;2024-03-23T13:54:58;98731.28;;;4.84
49154;BMP280;49455;52.252;9.124;2024-03-23T13:59:58;98734.38;;;4.32
49154;BMP280;49455;52.252;9.124;2024-03-23T14:05:01;98728.59;;;4.46
49154;BMP280;49455;52.252;9.124;2024-03-23T14:10:05;98706.28;;;4.60
49154;BMP280;49455;52.252;9.124;2024-03-23T14:15:07;98657.31;;;4.83
49154;BMP280;49455;52.252;9.124;2024-03-23T14:20:07;98646.38;;;5.46
49154;BMP280;49455;52.252;9.124;2024-03-23T14:25:08;98631.69;;;7.12
49154;BMP280;49455;52.252;9.124;2024-03-23T14:30:09;98632.03;;;8.18
49154;BMP280;49455;52.252;9.124;2024-03-23T14:35:09;98625.13;;;8.38
49154;BMP280;49455;52.252;9.124;2024-03-23T14:40:10;98620.03;;;8.84
49154;BMP280;49455;52.252;9.124;2024-03-23T14:45:11;98620.72;;;8.39
49154;BMP280;49455;52.252;9.124;2024-03-23T14:50:11;98611.44;;;8.68
49154;BMP280;49455;52.252;9.124;2024-03-23T14:55:12;98611.84;;;8.89
49154;BMP280;49455;52.252;9.124;2024-03-23T15:00:12;98605.91;;;7.89
49154;BMP280;49455;52.252;9.124;2024-03-23T15:05:13;98605.09;;;7.25
49154;BMP280;49455;52.252;9.124;2024-03-23T15:10:13;98622.78;;;7.20
49154;BMP280;49455;52.252;9.124;2024-03-23T15:15:14;98669.09;;;5.16
49154;BMP280;49455;52.252;9.124;2024-03-23T15:20:14;98667.72;;;4.25
49154;BMP280;49455;52.252;9.124;2024-03-23T15:25:15;98675.75;;;4.20
49154;BMP280;49455;52.252;9.124;2024-03-23T15:30:15;98665.28;;;4.60
49154;BMP280;49455;52.252;9.124;2024-03-23T15:35:16;98638.59;;;5.81
49154;BMP280;49455;52.252;9.124;2024-03-23T15:40:16;98627.59;;;5.77
49154;BMP280;49455;52.252;9.124;2024-03-23T15:45:17;98636.84;;;5.43
49154;BMP280;49455;52.252;9.124;2024-03-23T15:50:17;98629.50;;;5.31
49154;BMP280;49455;52.252;9.124;2024-03-23T15:55:18;98620.25;;;5.96
49154;BMP280;49455;52.252;9.124;2024-03-23T16:00:18;98605.56;;;5.83
49154;BMP280;49455;52.252;9.124;2024-03-23T16:05:19;98603.78;;;5.73
49154;BMP280;49455;52.252;9.124;2024-03-23T16:10:19;98589.53;;;6.44
49154;BMP280;49455;52.252;9.124;2024-03-23T16:15:20;98580.00;;;6.96
49154;BMP280;49455;52.252;9.124;2024-03-23T16:20:20;98581.25;;;6.74
49154;BMP280;49455;52.252;9.124;2024-03-23T16:25:21;98574.91;;;6.38
49154;BMP280;49455;52.252;9.124;2024-03-23T16:30:21;98572.69;;;6.36
49154;BMP280;49455;52.252;9.124;2024-03-23T16:35:21;98563.75;;;6.55
49154;BMP280;49455;52.252;9.124;2024-03-23T16:40:22;98559.34;;;6.55
49154;BMP280;49455;52.252;9.124;2024-03-23T16:45:22;98552.97;;;6.19
49154;BMP280;49455;52.252;9.124;2024-03-23T16:50:23;98547.13;;;6.11
49154;BMP280;49455;52.252;9.124;2024-03-23T16:55:23;98544.97;;;6.10
49154;BMP280;49455;52.252;9.124;2024-03-23T17:00:24;98540.91;;;6.05
49154;BMP280;49455;52.252;9.124;2024-03-23T17:05:24;98554.56;;;5.92
49154;BMP280;49455;52.252;9.124;2024-03-23T17:10:24;98550.13;;;6.03
49154;BMP280;49455;52.252;9.124;2024-03-23T17:15:25;98560.75;;;6.01
49154;BMP280;49455;52.252;9.124;2024-03-23T17:20:26;98564.78;;;5.99
49154;BMP280;49455;52.252;9.124;2024-03-23T17:25:26;98653.31;;;5.56
49154;BMP280;49455;52.252;9.124;2024-03-23T17:30:26;98643.75;;;3.86
49154;BMP280;49455;52.252;9.124;2024-03-23T17:35:27;98651.16;;;3.44
49154;BMP280;49455;52.252;9.124;2024-03-23T17:40:28;98642.53;;;3.19
49154;BMP280;49455;52.252;9.124;2024-03-23T17:45:28;98633.50;;;3.35
49154;BMP280;49455;52.252;9.124;2024-03-23T17:50:29;98608.78;;;3.50
49154;BMP280;49455;52.252;9.124;2024-03-23T17:55:29;98617.94;;;3.51
49154;BMP280;49455;52.252;9.124;2024-03-23T18:00:30;98607.38;;;3.56
49154;BMP280;49455;52.252;9.124;2024-03-23T18:05:30;98601.47;;;3.52
49154;BMP280;49455;52.252;9.124;2024-03-23T18:10:30;98599.69;;;3.56
49154;BMP280;49455;52.252;9.124;2024-03-23T18:15:31;98609.34;;;3.84
49154;BMP280;49455;52.252;9.124;2024-03-23T18:20:32;98603.97;;;3.99
49154;BMP280;49455;52.252;9.124;2024-03-23T18:25:32;98607.19;;;3.93
49154;BMP280;49455;52.252;9.124;2024-03-23T18:30:32;98607.19;;;3.89
49154;BMP280;49455;52.252;9.124;2024-03-23T18:35:33;98596.09;;;3.71
49154;BMP280;49455;52.252;9.124;2024-03-23T18:40:33;98597.56;;;3.65
49154;BMP280;49455;52.252;9.124;2024-03-23T18:45:34;98593.09;;;3.55
49154;BMP280;49455;52.252;9.124;2024-03-23T18:50:34;98588.03;;;3.66
49154;BMP280;49455;52.252;9.124;2024-03-23T18:55:39;98586.63;;;3.68
49154;BMP280;49455;52.252;9.124;2024-03-23T19:00:39;98582.25;;;3.76
49154;BMP280;49455;52.252;9.124;2024-03-23T19:05:40;98572.09;;;3.86
49154;BMP280;49455;52.252;9.124;2024-03-23T19:10:40;98564.03;;;3.91
49154;BMP280;49455;52.252;9.124;2024-03-23T19:15:41;98566.28;;;4.00
49154;BMP280;49455;52.252;9.124;2024-03-23T19:20:42;98553.13;;;3.98
49154;BMP280;49455;52.252;9.124;2024-03-23T19:25:42;98556.00;;;3.93
49154;BMP280;49455;52.252;9.124;2024-03-23T19:30:43;98540.28;;;3.91
49154;BMP280;49455;52.252;9.124;2024-03-23T19:35:43;98557.50;;;3.90
49154;BMP280;49455;52.252;9.124;2024-03-23T19:40:51;98543.22;;;3.96
49154;BMP280;49455;52.252;9.124;2024-03-23T19:45:52;98551.25;;;3.91
49154;BMP280;49455;52.252;9.124;2024-03-23T19:50:58;98552.72;;;3.92
49154;BMP280;49455;52.252;9.124;2024-03-23T19:55:59;98553.09;;;3.91
49154;BMP280;49455;52.252;9.124;2024-03-23T20:01:13;98558.56;;;3.93
49154;BMP280;49455;52.252;9.124;2024-03-23T20:06:14;98551.63;;;3.93
49154;BMP280;49455;52.252;9.124;2024-03-23T20:11:15;98549.81;;;3.90
49154;BMP280;49455;52.252;9.124;2024-03-23T20:16:15;98544.69;;;3.90
49154;BMP280;49455;52.252;9.124;2024-03-23T20:21:16;98550.19;;;3.89
49154;BMP280;49455;52.252;9.124;2024-03-23T20:26:16;98549.41;;;3.81
49154;BMP280;49455;52.252;9.124;2024-03-23T20:31:17;98533.63;;;3.72
49154;BMP280;49455;52.252;9.124;2024-03-23T20:36:17;98522.28;;;3.66
49154;BMP280;49455;52.252;9.124;2024-03-23T20:41:18;98520.78;;;3.62
49154;BMP280;49455;52.252;9.124;2024-03-23T20:46:18;98528.06;;;3.56
49154;BMP280;49455;52.252;9.124;2024-03-23T20:51:18;98534.97;;;3.52
49154;BMP280;49455;52.252;9.124;2024-03-23T20:56:20;98526.91;;;3.50
49154;BMP280;49455;52.252;9.124;2024-03-23T21:01:20;98528.72;;;3.46
49154;BMP280;49455;52.252;9.124;2024-03-23T21:06:21;98529.81;;;3.45
49154;BMP280;49455;52.252;9.124;2024-03-23T21:11:21;98523.25;;;3.44
49154;BMP280;49455;52.252;9.124;2024-03-23T21:16:22;98533.81;;;3.39
49154;BMP280;49455;52.252;9.124;2024-03-23T21:21:22;98540.41;;;3.40
49154;BMP280;49455;52.252;9.124;2024-03-23T21:26:23;98532.69;;;3.36
49154;BMP280;49455;52.252;9.124;2024-03-23T21:31:23;98535.63;;;3.35
49154;BMP280;49455;52.252;9.124;2024-03-23T21:36:24;98533.41;;;3.37
49154;BMP280;49455;52.252;9.124;2024-03-23T21:41:24;98517.75;;;3.38
49154;BMP280;49455;52.252;9.124;2024-03-23T21:46:25;98527.97;;;3.38
49154;BMP280;49455;52.252;9.124;2024-03-23T21:51:26;98517.72;;;3.35
49154;BMP280;49455;52.252;9.124;2024-03-23T21:56:26;98504.56;;;3.36
49154;BMP280;49455;52.252;9.124;2024-03-23T22:01:27;98503.84;;;3.39
49154;BMP280;49455;52.252;9.124;2024-03-23T22:06:27;98506.06;;;3.48
49154;BMP280;49455;52.252;9.124;2024-03-23T22:11:27;98487.47;;;3.51
49154;BMP280;49455;52.252;9.124;2024-03-23T22:16:28;98482.03;;;3.56
49154;BMP280;49455;52.252;9.124;2024-03-23T22:21:28;98469.25;;;3.60
49154;BMP280;49455;52.252;9.124;2024-03-23T22:26:29;98467.06;;;3.62
49154;BMP280;49455;52.252;9.124;2024-03-23T22:31:29;98468.16;;;3.64
49154;BMP280;49455;52.252;9.124;2024-03-23T22:36:29;98465.59;;;3.64
49154;BMP280;49455;52.252;9.124;2024-03-23T22:41:30;98457.91;;;3.61
49154;BMP280;49455;52.252;9.124;2024-03-23T22:46:30;98451.34;;;3.60
49154;BMP280;49455;52.252;9.124;2024-03-23T22:51:31;98449.47;;;3.53
49154;BMP280;49455;52.252;9.124;2024-03-23T22:56:31;98450.19;;;3.50
49154;BMP280;49455;52.252;9.124;2024-03-23T23:01:32;98437.78;;;3.55
49154;BMP280;49455;52.252;9.124;2024-03-23T23:06:32;98427.16;;;3.50
49154;BMP280;49455;52.252;9.124;2024-03-23T23:11:32;98433.75;;;3.47
49154;BMP280;49455;52.252;9.124;2024-03-23T23:16:33;98436.66;;;3.53
